Time;durP1;ratioP1;P1;durP2;ratioP2;P2;SDS_P1;SDS_P2;PMS_P1;PMS_P2;Temp;Humidity;BMP_temperature;BMP_pressure;BME280_temperature;BME280_humidity;BME280_pressure;Samples;Min_cycle;Max_cycle;Signal;HPM_P1;HPM_P2
2022/03/10 00:01:26;;;;;;;8.63;4.93;;;-1.10;98.60;;;;;;4992172;28;20161;-33
2022/03/10 00:03:52;;;;;;;7.32;4.28;;;-1.20;99.40;;;;;;4996670;28;20040;-32
2022/03/10 00:06:18;;;;;;;7.30;4.35;;;-1.20;99.60;;;;;;4993330;28;20068;-32
2022/03/10 00:08:44;;;;;;;8.02;5.63;;;-1.20;99.20;;;;;;4995786;28;20041;-32
2022/03/10 00:11:09;;;;;;;4.80;3.95;;;-1.20;98.50;;;;;;4994376;28;20232;-33
2022/03/10 00:13:35;;;;;;;5.78;4.80;;;-1.30;99.00;;;;;;4991801;28;20851;-32
2022/03/10 00:16:01;;;;;;;7.50;4.68;;;-1.20;97.60;;;;;;4994296;28;20022;-33
2022/03/10 00:18:26;;;;;;;7.68;4.35;;;-1.30;97.10;;;;;;4994187;28;20534;-32
2022/03/10 00:20:52;;;;;;;7.13;5.30;;;-1.20;96.90;;;;;;4992350;28;20076;-32
2022/03/10 00:23:18;;;;;;;8.20;4.97;;;-1.20;96.20;;;;;;4995694;28;20360;-32
2022/03/10 00:25:44;;;;;;;8.07;4.80;;;-1.30;99.50;;;;;;4993702;28;20480;-32
2022/03/10 00:28:10;;;;;;;9.25;5.05;;;-1.60;99.90;;;;;;4993534;28;20510;-32
2022/03/10 00:30:35;;;;;;;7.32;3.90;;;-1.70;99.90;;;;;;4995193;28;20025;-32
2022/03/10 00:33:01;;;;;;;7.60;5.00;;;-1.90;99.90;;;;;;4995802;28;20026;-33
2022/03/10 00:35:27;;;;;;;5.40;4.80;;;-1.80;99.90;;;;;;4999386;28;20414;-32
2022/03/10 00:37:53;;;;;;;5.35;3.88;;;-1.70;99.90;;;;;;4996322;28;20038;-32
2022/03/10 00:40:19;;;;;;;4.40;3.97;;;-1.70;99.90;;;;;;4995484;28;20127;-32
2022/03/10 00:42:45;;;;;;;4.50;3.47;;;-2.00;99.90;;;;;;4999670;28;20554;-32
2022/03/10 00:45:12;;;;;;;6.53;3.50;;;-2.30;99.90;;;;;;4997678;28;20033;-34
2022/03/10 00:47:38;;;;;;;4.15;3.30;;;-2.50;99.90;;;;;;4997795;28;20021;-32
2022/03/10 00:50:04;;;;;;;8.48;4.35;;;-2.50;99.90;;;;;;4999215;28;20037;-33
2022/03/10 00:52:30;;;;;;;8.10;4.72;;;-2.40;99.90;;;;;;4996123;28;20591;-32
2022/03/10 00:54:56;;;;;;;6.10;3.92;;;-2.40;99.90;;;;;;4996994;28;20149;-32
2022/03/10 00:57:22;;;;;;;4.72;4.28;;;-2.30;99.90;;;;;;5001959;28;20025;-32
2022/03/10 00:59:48;;;;;;;7.80;4.50;;;-2.20;99.90;;;;;;4998093;28;20054;-32
2022/03/10 01:02:13;;;;;;;6.47;3.67;;;-2.20;99.90;;;;;;5000518;28;20074;-32
2022/03/10 01:04:39;;;;;;;5.22;3.80;;;-2.20;99.90;;;;;;4999364;28;20034;-32
2022/03/10 01:07:05;;;;;;;10.30;4.85;;;-2.20;99.90;;;;;;4998374;28;20029;-33
2022/03/10 01:09:30;;;;;;;7.75;5.05;;;-2.20;99.90;;;;;;4999692;28;20036;-32
2022/03/10 01:11:56;;;;;;;4.78;3.70;;;-2.10;99.90;;;;;;5001886;28;20026;-32
2022/03/10 01:14:21;;;;;;;6.90;4.85;;;-2.10;99.90;;;;;;4998628;28;20033;-33
2022/03/10 01:16:47;;;;;;;10.70;5.05;;;-2.10;99.90;;;;;;4998329;28;20021;-32
2022/03/10 01:19:14;;;;;;;4.80;3.90;;;-2.20;99.90;;;;;;4997830;28;20122;-33
2022/03/10 01:21:41;;;;;;;5.13;4.45;;;-2.20;99.90;;;;;;4999432;28;20037;-32
2022/03/10 01:24:07;;;;;;;7.22;4.60;;;-2.30;99.90;;;;;;4996568;28;20132;-32
2022/03/10 01:26:33;;;;;;;9.43;3.85;;;-2.30;99.90;;;;;;4998546;28;20433;-32
2022/03/10 01:28:58;;;;;;;5.03;3.85;;;-2.20;99.90;;;;;;4997453;28;20590;-32
2022/03/10 01:31:24;;;;;;;7.05;4.97;;;-2.30;99.90;;;;;;4998911;28;20037;-32
2022/03/10 01:33:50;;;;;;;7.53;4.70;;;-2.30;99.90;;;;;;4997986;28;20073;-32
2022/03/10 01:36:15;;;;;;;6.60;4.90;;;-2.20;99.90;;;;;;4998667;28;20037;-32
2022/03/10 01:38:42;;;;;;;3.95;3.60;;;-2.40;99.90;;;;;;4999483;28;20052;-32
2022/03/10 01:41:09;;;;;;;7.72;4.35;;;-2.50;99.90;;;;;;4997523;28;20025;-32
2022/03/10 01:43:58;;;;;;;4.75;3.28;;;-2.60;99.90;;;;;;4998985;28;20068;-32
2022/03/10 01:46:24;;;;;;;6.53;4.53;;;-2.70;99.90;;;;;;4998185;28;20686;-32
2022/03/10 01:48:49;;;;;;;7.90;4.95;;;-2.80;99.90;;;;;;4999957;28;20030;-32
2022/03/10 01:51:16;;;;;;;7.65;4.25;;;-2.70;99.90;;;;;;4997618;28;20036;-32
2022/03/10 01:53:42;;;;;;;9.95;5.30;;;-2.60;99.90;;;;;;4993127;28;20068;-32
2022/03/10 01:56:09;;;;;;;5.20;3.60;;;-2.50;99.90;;;;;;4996340;28;20479;-32
2022/03/10 01:58:36;;;;;;;6.13;4.68;;;-2.50;99.90;;;;;;4996594;28;20026;-33
2022/03/10 02:01:02;;;;;;;7.35;4.47;;;-2.50;99.90;;;;;;4997266;28;20597;-33
2022/03/10 02:03:28;;;;;;;5.47;4.43;;;-2.40;99.90;;;;;;4997871;28;20030;-34
2022/03/10 02:05:54;;;;;;;5.20;4.53;;;-2.40;99.90;;;;;;4996256;28;20103;-34
2022/03/10 02:11:06;;;;;;;9.25;4.28;;;-2.40;99.90;;;;;;5001450;28;20113;-35
2022/03/10 02:13:32;;;;;;;4.00;3.22;;;-2.40;99.90;;;;;;5002706;28;20046;-34
2022/03/10 02:18:42;;;;;;;5.57;4.18;;;-2.40;99.90;;;;;;5000365;28;20056;-34
2022/03/10 02:21:07;;;;;;;7.20;3.60;;;-2.50;99.90;;;;;;5002277;28;20030;-34
2022/03/10 02:23:33;;;;;;;8.02;3.45;;;-2.70;99.90;;;;;;4998873;28;20121;-34
2022/03/10 02:25:59;;;;;;;3.63;3.33;;;-2.80;99.90;;;;;;5003115;28;20026;-34
2022/03/10 02:28:26;;;;;;;4.03;3.20;;;-3.00;99.90;;;;;;5001923;28;20120;-35
2022/03/10 02:30:55;;;;;;;3.85;3.45;;;-3.30;99.90;;;;;;5003305;28;20045;-33
2022/03/10 02:33:21;;;;;;;5.20;3.85;;;-3.30;99.90;;;;;;5002440;28;20646;-33
2022/03/10 02:35:47;;;;;;;6.30;5.32;;;-3.20;99.90;;;;;;5003101;28;20161;-34
2022/03/10 02:38:19;;;;;;;7.25;5.10;;;-3.10;99.90;;;;;;5004507;28;20700;-34
2022/03/10 02:40:46;;;;;;;5.72;4.75;;;-3.00;99.90;;;;;;5000788;28;20076;-34
2022/03/10 02:43:11;;;;;;;4.55;4.20;;;-2.90;99.90;;;;;;5002051;28;20026;-33
2022/03/10 02:45:37;;;;;;;5.93;3.90;;;-2.90;99.90;;;;;;5002284;28;20034;-34
2022/03/10 02:48:03;;;;;;;7.78;5.35;;;-2.90;99.90;;;;;;5002858;28;20380;-34
2022/03/10 02:50:29;;;;;;;6.18;4.10;;;-2.90;99.90;;;;;;4998080;28;20033;-35
2022/03/10 02:52:57;;;;;;;3.22;2.95;;;-3.00;99.90;;;;;;5004358;28;20030;-35
2022/03/10 02:55:23;;;;;;;5.78;3.78;;;-2.90;99.90;;;;;;4996250;28;20041;-33
2022/03/10 02:57:49;;;;;;;3.45;3.13;;;-2.90;99.90;;;;;;5001426;28;20026;-35
2022/03/10 03:00:16;;;;;;;3.90;3.33;;;-2.90;99.90;;;;;;5001381;28;20950;-33
2022/03/10 03:02:42;;;;;;;5.38;4.28;;;-2.80;99.90;;;;;;5000071;28;20092;-33
2022/03/10 03:05:14;;;;;;;12.00;4.60;;;-2.80;99.90;;;;;;4999556;28;20026;-35
2022/03/10 03:07:40;;;;;;;5.18;4.03;;;-2.90;99.90;;;;;;5003007;28;20028;-34
2022/03/10 03:10:07;;;;;;;3.67;3.03;;;-3.30;99.90;;;;;;5001087;28;20125;-34
2022/03/10 03:12:33;;;;;;;5.43;3.08;;;-3.40;99.90;;;;;;4999501;28;20140;-34
2022/03/10 03:15:00;;;;;;;5.25;3.63;;;-3.40;99.90;;;;;;5003159;28;20032;-34
2022/03/10 03:17:26;;;;;;;9.57;3.92;;;-3.50;99.90;;;;;;5004279;28;20124;-33
2022/03/10 03:19:53;;;;;;;5.95;5.13;;;-3.50;99.90;;;;;;5003990;28;20072;-35
2022/03/10 03:22:19;;;;;;;8.55;5.50;;;-3.40;99.90;;;;;;5002917;28;20021;-34
2022/03/10 03:24:45;;;;;;;18.85;12.57;;;-3.30;99.90;;;;;;5001659;28;20087;-34
2022/03/10 03:27:12;;;;;;;16.40;11.00;;;-3.20;99.90;;;;;;4997787;28;20112;-33
2022/03/10 03:29:37;;;;;;;10.15;8.10;;;-3.10;99.90;;;;;;5004570;28;20030;-36
2022/03/10 03:32:04;;;;;;;15.90;7.65;;;-3.10;99.90;;;;;;4998664;28;20099;-35
2022/03/10 03:34:29;;;;;;;8.07;4.22;;;-3.00;99.90;;;;;;5002121;28;20068;-33
2022/03/10 03:36:55;;;;;;;7.47;3.72;;;-3.10;99.90;;;;;;5002704;28;20112;-35
2022/03/10 03:39:21;;;;;;;7.70;4.00;;;-3.20;99.90;;;;;;5004015;28;20030;-34
2022/03/10 03:41:47;;;;;;;7.70;5.05;;;-3.20;99.90;;;;;;4998506;28;20494;-33
2022/03/10 03:44:13;;;;;;;9.82;5.72;;;-3.20;99.90;;;;;;5004099;28;20105;-33
2022/03/10 03:46:40;;;;;;;5.03;4.53;;;-3.10;99.90;;;;;;5000268;28;20044;-34
2022/03/10 03:49:06;;;;;;;10.27;5.80;;;-3.10;99.90;;;;;;5003263;28;20088;-34
2022/03/10 03:51:32;;;;;;;6.85;4.75;;;-3.10;99.90;;;;;;4999133;28;20049;-34
2022/03/10 03:53:58;;;;;;;6.07;5.47;;;-3.10;99.90;;;;;;4981577;28;20483;-34
2022/03/10 03:56:23;;;;;;;11.40;6.32;;;-3.10;99.90;;;;;;5000830;28;20408;-34
2022/03/10 03:58:49;;;;;;;9.75;4.53;;;-3.20;99.90;;;;;;5001436;28;20466;-34
2022/03/10 04:01:15;;;;;;;4.60;4.00;;;-3.30;99.90;;;;;;5002333;28;20076;-34
2022/03/10 04:03:42;;;;;;;4.90;3.38;;;-3.30;99.90;;;;;;5002396;28;20033;-34
2022/03/10 04:06:08;;;;;;;6.55;5.18;;;-3.30;99.90;;;;;;5004114;28;20034;-34
2022/03/10 04:08:34;;;;;;;6.05;4.15;;;-3.20;99.90;;;;;;5003983;28;20340;-34
2022/03/10 04:10:59;;;;;;;5.72;4.40;;;-3.20;99.90;;;;;;5003272;28;20062;-33
2022/03/10 04:13:25;;;;;;;7.18;4.50;;;-3.20;99.90;;;;;;5000874;28;20399;-34
2022/03/10 04:15:51;;;;;;;7.55;4.60;;;-3.20;99.90;;;;;;5005486;28;20133;-33
2022/03/10 04:18:17;;;;;;;6.53;4.90;;;-3.20;99.90;;;;;;5004364;28;20049;-34
2022/03/10 04:20:44;;;;;;;5.60;4.13;;;-3.20;99.90;;;;;;5005491;28;20663;-34
2022/03/10 04:23:11;;;;;;;5.60;5.15;;;-3.20;99.90;;;;;;5006496;28;20059;-34
2022/03/10 04:25:37;;;;;;;6.97;5.13;;;-3.20;99.90;;;;;;5005061;28;20034;-34
2022/03/10 04:28:03;;;;;;;6.55;5.45;;;-3.20;99.90;;;;;;5000626;28;20399;-33
2022/03/10 04:30:29;;;;;;;7.10;4.00;;;-3.10;99.90;;;;;;5005475;28;20033;-34
2022/03/10 04:32:54;;;;;;;5.88;4.82;;;-3.10;99.90;;;;;;5004757;28;20030;-33
2022/03/10 04:35:20;;;;;;;6.20;4.47;;;-3.10;99.90;;;;;;5004603;28;20030;-34
2022/03/10 04:37:50;;;;;;;7.25;5.07;;;-3.10;99.90;;;;;;5002431;28;20160;-34
2022/03/10 04:40:16;;;;;;;10.48;4.93;;;-3.10;99.90;;;;;;5003133;28;20030;-34
2022/03/10 04:42:42;;;;;;;6.90;4.82;;;-3.10;99.90;;;;;;5005601;28;20029;-34
2022/03/10 04:45:09;;;;;;;5.93;4.50;;;-3.10;99.90;;;;;;5006707;28;20367;-33
2022/03/10 04:47:36;;;;;;;6.78;4.97;;;-3.20;99.90;;;;;;5001694;28;20400;-34
2022/03/10 04:50:03;;;;;;;6.63;4.78;;;-3.30;99.90;;;;;;4986021;28;20606;-33
2022/03/10 04:52:29;;;;;;;4.47;3.92;;;-3.40;99.90;;;;;;5004434;28;20033;-35
2022/03/10 04:54:55;;;;;;;8.15;4.75;;;-3.40;99.90;;;;;;5005268;28;20052;-34
2022/03/10 04:57:21;;;;;;;6.85;4.38;;;-3.40;99.90;;;;;;5007482;28;20022;-34
2022/03/10 04:59:47;;;;;;;5.72;5.20;;;-3.40;99.90;;;;;;5004287;28;20112;-34
2022/03/10 05:02:13;;;;;;;7.13;5.25;;;-3.40;99.90;;;;;;5002943;28;20450;-34
2022/03/10 05:04:38;;;;;;;7.13;5.18;;;-3.40;99.90;;;;;;5000814;28;20022;-34
2022/03/10 05:07:04;;;;;;;14.77;5.30;;;-3.40;99.90;;;;;;5002562;28;20127;-34
2022/03/10 05:09:30;;;;;;;6.95;5.05;;;-3.50;99.90;;;;;;5004375;28;20387;-35
2022/03/10 05:11:56;;;;;;;7.00;4.70;;;-3.50;99.90;;;;;;5006355;28;20109;-34
2022/03/10 05:14:22;;;;;;;8.35;4.65;;;-3.50;99.90;;;;;;5004858;28;20038;-33
2022/03/10 05:16:48;;;;;;;6.80;5.72;;;-3.50;99.90;;;;;;5006165;28;20525;-34
2022/03/10 05:19:14;;;;;;;9.18;5.45;;;-3.50;99.90;;;;;;5000229;28;20022;-34
2022/03/10 05:21:40;;;;;;;6.85;5.03;;;-3.50;99.90;;;;;;5005115;28;20121;-35
2022/03/10 05:24:06;;;;;;;5.82;4.57;;;-3.50;99.90;;;;;;5002763;28;20049;-34
2022/03/10 05:26:31;;;;;;;7.75;3.88;;;-3.40;99.90;;;;;;5003360;28;20026;-35
2022/03/10 05:28:58;;;;;;;11.25;5.03;;;-3.50;99.90;;;;;;5004060;28;20042;-34
2022/03/10 05:31:24;;;;;;;40.15;15.15;;;-3.50;99.90;;;;;;5003263;28;20056;-34
2022/03/10 05:33:49;;;;;;;130.93;50.05;;;-3.50;99.90;;;;;;5003143;28;20493;-35
2022/03/10 05:36:15;;;;;;;17.70;8.40;;;-3.50;99.90;;;;;;5005049;28;20062;-34
2022/03/10 05:38:41;;;;;;;35.72;16.33;;;-3.70;99.90;;;;;;5005340;28;20379;-33
2022/03/10 05:41:07;;;;;;;8.00;5.80;;;-3.70;99.90;;;;;;5000877;28;20100;-34
2022/03/10 05:43:32;;;;;;;4.85;4.32;;;-3.80;99.90;;;;;;5005119;28;20026;-37
2022/03/10 05:45:58;;;;;;;6.32;4.95;;;-4.00;99.90;;;;;;5006105;28;20033;-34
2022/03/10 05:48:24;;;;;;;6.57;4.28;;;-4.20;99.90;;;;;;5003908;28;20037;-34
2022/03/10 05:50:50;;;;;;;10.52;4.57;;;-4.10;99.90;;;;;;5005322;28;20037;-34
2022/03/10 05:53:15;;;;;;;12.82;3.88;;;-4.10;99.90;;;;;;5002504;28;20030;-34
2022/03/10 05:55:41;;;;;;;4.97;3.60;;;-4.10;99.90;;;;;;4999471;28;20085;-34
2022/03/10 05:58:07;;;;;;;4.30;3.17;;;-4.10;99.90;;;;;;5004650;28;20029;-34
2022/03/10 06:00:32;;;;;;;5.63;3.67;;;-4.10;99.90;;;;;;5001849;28;20034;-34
2022/03/10 06:02:58;;;;;;;7.30;4.00;;;-4.20;99.90;;;;;;5002197;28;20596;-33
2022/03/10 06:05:23;;;;;;;5.35;4.00;;;-4.20;99.90;;;;;;5004581;28;20121;-33
2022/03/10 06:07:50;;;;;;;6.68;4.43;;;-4.10;99.90;;;;;;5000572;28;20049;-34
2022/03/10 06:10:15;;;;;;;3.25;3.05;;;-4.10;99.90;;;;;;5000266;28;20037;-34
2022/03/10 06:12:43;;;;;;;4.30;3.83;;;-4.20;99.90;;;;;;5000600;28;20029;-34
2022/03/10 06:15:10;;;;;;;4.78;3.55;;;-4.20;99.90;;;;;;5000708;28;20098;-34
2022/03/10 06:17:36;;;;;;;3.67;3.38;;;-4.30;99.90;;;;;;5002500;28;20041;-34
2022/03/10 06:20:03;;;;;;;3.70;3.15;;;-4.40;99.90;;;;;;5004553;28;20029;-36
2022/03/10 06:22:31;;;;;;;4.53;3.65;;;-4.40;99.90;;;;;;4997008;28;20567;-34
2022/03/10 06:24:58;;;;;;;6.47;4.07;;;-4.30;99.90;;;;;;5004244;28;20062;-34
2022/03/10 06:27:24;;;;;;;9.73;4.90;;;-4.20;99.90;;;;;;4999823;28;20554;-36
2022/03/10 06:29:50;;;;;;;6.40;5.05;;;-4.10;99.90;;;;;;5002347;28;20046;-34
2022/03/10 06:32:21;;;;;;;7.45;4.63;;;-3.90;99.90;;;;;;5005142;28;20038;-34
2022/03/10 06:34:48;;;;;;;8.02;4.47;;;-3.90;99.90;;;;;;5000730;28;20025;-34
2022/03/10 06:37:15;;;;;;;5.88;4.13;;;-3.80;99.90;;;;;;5003146;28;20063;-34
2022/03/10 06:39:41;;;;;;;5.30;3.63;;;-3.70;99.90;;;;;;5001108;28;20030;-35
2022/03/10 06:42:09;;;;;;;5.82;5.20;;;-3.60;99.90;;;;;;5002684;28;20383;-33
2022/03/10 06:44:36;;;;;;;5.63;4.50;;;-3.60;99.90;;;;;;5001702;28;20026;-34
2022/03/10 06:47:03;;;;;;;7.90;5.35;;;-3.50;99.90;;;;;;5003490;28;20025;-34
2022/03/10 06:49:29;;;;;;;7.47;5.78;;;-3.40;99.90;;;;;;5002289;28;20018;-34
2022/03/10 06:51:54;;;;;;;4.78;4.15;;;-3.30;99.90;;;;;;5004475;28;20398;-34
2022/03/10 06:54:20;;;;;;;11.23;4.72;;;-3.30;99.90;;;;;;5004036;28;20029;-33
2022/03/10 06:56:46;;;;;;;9.25;4.72;;;-3.30;99.90;;;;;;5006472;28;20026;-34
2022/03/10 06:59:12;;;;;;;5.75;4.78;;;-3.20;99.90;;;;;;5004366;28;20075;-33
2022/03/10 07:01:38;;;;;;;8.25;5.75;;;-3.20;99.90;;;;;;5004562;28;20110;-34
2022/03/10 07:04:04;;;;;;;7.72;5.45;;;-3.10;99.90;;;;;;5007934;28;20035;-34
2022/03/10 07:06:29;;;;;;;6.30;5.68;;;-3.00;99.90;;;;;;5005139;28;20030;-34
2022/03/10 07:08:55;;;;;;;11.40;6.50;;;-3.00;99.90;;;;;;5003183;28;20034;-34
2022/03/10 07:11:21;;;;;;;9.18;5.07;;;-2.90;99.90;;;;;;5005931;28;20026;-34
2022/03/10 07:13:47;;;;;;;6.05;4.82;;;-2.90;99.90;;;;;;5003336;28;20124;-34
2022/03/10 07:16:13;;;;;;;17.25;6.72;;;-2.80;99.90;;;;;;5005513;28;20875;-34
2022/03/10 07:18:39;;;;;;;11.07;5.63;;;-2.70;99.90;;;;;;5004280;28;20491;-33
2022/03/10 07:21:05;;;;;;;8.38;5.65;;;-2.60;99.90;;;;;;5003945;28;20033;-34
2022/03/10 07:23:31;;;;;;;11.13;6.65;;;-2.50;99.90;;;;;;5004535;28;20036;-34
2022/03/10 07:25:57;;;;;;;14.52;7.15;;;-2.40;99.90;;;;;;5005145;28;20084;-33
2022/03/10 07:28:23;;;;;;;14.30;7.78;;;-2.30;99.90;;;;;;5003122;28;20026;-33
2022/03/10 07:30:49;;;;;;;9.10;5.78;;;-2.10;99.90;;;;;;5003867;28;20074;-34
2022/03/10 07:33:14;;;;;;;10.18;7.13;;;-2.00;99.90;;;;;;5004519;28;20062;-33
2022/03/10 07:35:40;;;;;;;7.53;6.30;;;-1.70;99.90;;;;;;5002686;28;21614;-33
2022/03/10 07:38:06;;;;;;;13.55;8.25;;;-1.60;99.90;;;;;;5005292;28;20483;-36
2022/03/10 07:40:31;;;;;;;22.05;8.25;;;-1.10;99.90;;;;;;5002632;28;20036;-34
2022/03/10 07:42:57;;;;;;;18.42;9.20;;;-0.80;99.90;;;;;;5002977;28;20033;-34
2022/03/10 07:45:23;;;;;;;18.38;9.82;;;-0.30;99.90;;;;;;5004174;28;20395;-34
2022/03/10 07:47:48;;;;;;;16.60;9.48;;;0.10;99.90;;;;;;5003981;28;20026;-33
2022/03/10 07:50:14;;;;;;;13.05;9.02;;;0.20;99.90;;;;;;5007687;28;20129;-34
2022/03/10 07:52:41;;;;;;;17.48;9.63;;;0.50;99.90;;;;;;5007417;28;20040;-34
2022/03/10 07:55:08;;;;;;;13.38;8.35;;;0.70;99.90;;;;;;5009111;28;20159;-34
2022/03/10 07:57:35;;;;;;;13.52;9.13;;;0.90;99.90;;;;;;5011592;28;20038;-35
2022/03/10 08:00:01;;;;;;;13.75;8.38;;;1.30;99.90;;;;;;5010211;28;20052;-34
2022/03/10 08:02:28;;;;;;;12.25;8.48;;;1.50;99.90;;;;;;5006697;28;20046;-34
2022/03/10 08:04:53;;;;;;;14.35;9.98;;;1.80;99.90;;;;;;5011765;28;20080;-34
2022/03/10 08:07:19;;;;;;;12.77;7.75;;;1.90;99.90;;;;;;5010426;28;20021;-33
2022/03/10 08:09:44;;;;;;;15.27;8.68;;;2.00;99.90;;;;;;5009989;28;20578;-34
2022/03/10 08:12:10;;;;;;;13.90;9.10;;;2.20;99.90;;;;;;4994030;28;20072;-33
2022/03/10 08:14:36;;;;;;;15.63;9.07;;;2.30;99.90;;;;;;5008367;28;20034;-35
2022/03/10 08:17:01;;;;;;;14.55;9.07;;;2.40;99.90;;;;;;5009973;28;20052;-34
2022/03/10 08:19:27;;;;;;;17.60;9.35;;;2.60;99.90;;;;;;5009792;28;20022;-36
2022/03/10 08:21:52;;;;;;;13.18;8.65;;;2.70;99.90;;;;;;5007655;28;20496;-34
2022/03/10 08:24:18;;;;;;;13.43;7.55;;;2.80;99.90;;;;;;5008679;28;20105;-35
2022/03/10 08:26:44;;;;;;;17.73;9.57;;;2.90;98.80;;;;;;5009544;28;20033;-33
2022/03/10 08:29:09;;;;;;;15.43;8.77;;;3.10;98.10;;;;;;5010206;28;20513;-35
2022/03/10 08:31:35;;;;;;;13.85;8.60;;;3.20;96.90;;;;;;5007934;28;20049;-34
2022/03/10 08:34:01;;;;;;;18.17;10.38;;;3.40;99.90;;;;;;5007453;28;20042;-34
2022/03/10 08:36:26;;;;;;;18.92;10.18;;;3.60;99.90;;;;;;5009007;28;20029;-34
2022/03/10 08:38:52;;;;;;;16.55;9.80;;;3.80;99.90;;;;;;5011658;28;20049;-35
2022/03/10 08:41:17;;;;;;;14.00;9.32;;;3.90;99.90;;;;;;5010377;28;20096;-36
2022/03/10 08:43:43;;;;;;;13.57;8.13;;;4.00;98.00;;;;;;5008527;28;20447;-35
2022/03/10 08:46:09;;;;;;;12.00;7.45;;;4.30;92.90;;;;;;5011214;28;20038;-33
2022/03/10 08:48:35;;;;;;;12.88;7.38;;;4.50;87.70;;;;;;5011661;28;20037;-34
2022/03/10 08:51:03;;;;;;;13.80;7.30;;;4.70;90.10;;;;;;5014489;28;20048;-34
2022/03/10 08:53:30;;;;;;;10.20;6.85;;;4.90;81.40;;;;;;5008882;28;20057;-34
2022/03/10 08:55:56;;;;;;;11.40;6.25;;;5.00;78.50;;;;;;4991082;28;20038;-33
2022/03/10 08:58:22;;;;;;;13.90;6.60;;;5.20;76.30;;;;;;5010296;28;20033;-36
2022/03/10 09:00:48;;;;;;;9.57;6.80;;;5.30;73.60;;;;;;5007891;28;20041;-36
2022/03/10 09:03:13;;;;;;;10.32;6.65;;;5.30;76.80;;;;;;5005849;28;20303;-36
2022/03/10 09:05:40;;;;;;;12.00;6.70;;;5.50;71.10;;;;;;5004431;28;20034;-34
2022/03/10 09:08:06;;;;;;;9.23;7.07;;;5.60;73.00;;;;;;5006317;28;20056;-34
2022/03/10 09:10:32;;;;;;;11.82;7.93;;;5.90;69.30;;;;;;5006422;28;20507;-33
2022/03/10 09:12:59;;;;;;;12.05;7.15;;;6.00;70.00;;;;;;5001423;28;20029;-36
2022/03/10 09:15:26;;;;;;;11.20;7.68;;;6.20;69.50;;;;;;5002780;28;20034;-33
2022/03/10 09:17:55;;;;;;;12.80;6.60;;;6.10;66.00;;;;;;5004913;28;20045;-35
2022/03/10 09:20:21;;;;;;;;;;;6.20;64.00;;;;;;5004998;28;20040;-34
2022/03/10 09:22:48;;;;;;;9.43;5.53;;;6.20;67.00;;;;;;5004805;28;19910;-34
2022/03/10 09:25:14;;;;;;;9.95;6.65;;;6.50;64.40;;;;;;5003919;28;20121;-37
2022/03/10 09:27:40;;;;;;;12.20;6.82;;;6.60;63.20;;;;;;5005667;28;20040;-33
2022/03/10 09:30:08;;;;;;;11.07;6.78;;;6.70;62.00;;;;;;5008074;28;20421;-33
2022/03/10 09:32:39;;;;;;;10.38;6.47;;;6.80;62.90;;;;;;5003327;28;20038;-34
2022/03/10 09:35:07;;;;;;;11.30;6.57;;;6.90;62.10;;;;;;5005414;28;20038;-34
2022/03/10 09:37:33;;;;;;;13.38;6.75;;;7.00;59.30;;;;;;5007037;28;20035;-34
2022/03/10 09:39:59;;;;;;;9.45;5.90;;;7.10;61.60;;;;;;5005048;28;20041;-34
2022/03/10 09:42:28;;;;;;;10.27;6.25;;;7.30;57.40;;;;;;5006721;28;20048;-34
2022/03/10 09:44:58;;;;;;;11.52;5.97;;;7.40;57.80;;;;;;5005721;28;20079;-34
2022/03/10 09:47:24;;;;;;;13.57;6.68;;;7.40;56.10;;;;;;5005726;28;20044;-33
2022/03/10 09:49:50;;;;;;;13.18;6.68;;;7.40;56.10;;;;;;5007271;28;20037;-34
2022/03/10 09:52:16;;;;;;;10.15;6.60;;;7.60;58.60;;;;;;5005512;28;20044;-34
2022/03/10 09:54:42;;;;;;;12.20;6.50;;;7.60;58.60;;;;;;5004428;28;20468;-33
2022/03/10 09:57:08;;;;;;;12.50;6.68;;;7.80;55.90;;;;;;5004176;28;20026;-33
2022/03/10 09:59:46;;;;;;;10.73;6.45;;;7.80;56.00;;;;;;5004405;28;20026;-34
2022/03/10 10:02:11;;;;;;;10.18;6.65;;;7.90;54.80;;;;;;5006360;28;20033;-33
2022/03/10 10:04:37;;;;;;;11.07;6.80;;;8.00;54.50;;;;;;5006031;28;20026;-33
2022/03/10 10:07:10;;;;;;;10.30;6.45;;;8.30;58.60;;;;;;5005828;28;20030;-34
2022/03/10 10:09:51;;;;;;;13.15;5.85;;;8.50;56.90;;;;;;5004352;28;20090;-34
2022/03/10 10:12:18;;;;;;;11.55;5.75;;;8.50;52.70;;;;;;5006758;28;20048;-34
2022/03/10 10:14:47;;;;;;;13.07;6.82;;;8.40;52.40;;;;;;5005958;28;20112;-34
2022/03/10 10:17:13;;;;;;;19.48;5.85;;;8.70;52.90;;;;;;5004715;28;20042;-34
2022/03/10 10:19:40;;;;;;;11.30;6.20;;;8.90;53.00;;;;;;5006275;28;20038;-34
2022/03/10 10:22:14;;;;;;;11.60;6.15;;;8.70;49.90;;;;;;5007000;28;20034;-34
2022/03/10 10:24:54;;;;;;;9.27;5.22;;;8.70;53.90;;;;;;5004494;28;20034;-34
2022/03/10 10:27:25;;;;;;;10.80;6.05;;;9.00;50.40;;;;;;5005787;28;20032;-33
2022/03/10 10:29:55;;;;;;;10.70;5.80;;;9.10;50.70;;;;;;5004902;28;20585;-34
2022/03/10 10:32:25;;;;;;;8.60;5.05;;;9.20;50.30;;;;;;4986769;28;20395;-34
2022/03/10 10:35:03;;;;;;;7.35;4.75;;;9.50;48.90;;;;;;5005361;28;20490;-34
2022/03/10 10:37:30;;;;;;;60.90;8.05;;;9.60;46.70;;;;;;5002361;28;20025;-33
2022/03/10 10:39:58;;;;;;;8.90;5.70;;;9.70;49.20;;;;;;4996110;28;20184;-33
2022/03/10 10:42:31;;;;;;;;;;;9.70;46.10;;;;;;5006088;28;20022;-35
2022/03/10 10:45:01;;;;;;;8.75;4.68;;;9.60;45.50;;;;;;5000177;28;19960;-35
2022/03/10 10:47:29;;;;;;;7.43;4.90;;;9.70;45.30;;;;;;5005143;28;20080;-34
2022/03/10 10:50:04;;;;;;;11.70;5.45;;;9.80;45.80;;;;;;5005614;28;20065;-34
2022/03/10 10:52:40;;;;;;;8.25;4.95;;;9.70;44.50;;;;;;5005610;28;20156;-34
2022/03/10 10:55:06;;;;;;;10.18;4.70;;;9.60;44.50;;;;;;5002506;28;20159;-34
2022/03/10 10:57:36;;;;;;;7.35;4.68;;;9.90;44.20;;;;;;5004846;28;20050;-34
2022/03/10 11:00:13;;;;;;;13.57;5.72;;;9.90;45.60;;;;;;5006547;28;20033;-35
2022/03/10 11:02:44;;;;;;;14.30;5.75;;;10.00;44.30;;;;;;4985726;28;20038;-33
2022/03/10 11:05:14;;;;;;;7.50;4.18;;;10.00;44.70;;;;;;5003370;28;20033;-33
2022/03/10 11:07:41;;;;;;;8.23;4.60;;;9.90;43.20;;;;;;5003661;28;20041;-33
2022/03/10 11:10:11;;;;;;;9.38;4.65;;;10.10;42.90;;;;;;5005728;28;20391;-35
2022/03/10 11:12:40;;;;;;;9.40;4.90;;;10.00;42.70;;;;;;5001966;28;20049;-33
2022/03/10 11:15:09;;;;;;;8.43;5.25;;;10.20;46.00;;;;;;5004828;28;20427;-34
2022/03/10 11:17:35;;;;;;;7.30;5.13;;;10.30;43.90;;;;;;5004100;28;20052;-34
2022/03/10 11:20:07;;;;;;;6.63;4.78;;;10.40;44.70;;;;;;5003654;28;20029;-34
2022/03/10 11:22:55;;;;;;;48.17;7.65;;;10.40;42.10;;;;;;4999319;28;20511;-34
2022/03/10 11:25:54;;;;;;;6.10;4.40;;;10.50;42.30;;;;;;5000589;28;20097;-33
2022/03/10 11:28:25;;;;;;;7.53;4.88;;;10.60;44.10;;;;;;5002412;28;20112;-34
2022/03/10 11:30:55;;;;;;;6.75;3.92;;;10.60;41.70;;;;;;4987526;28;20034;-34
2022/03/10 11:33:32;;;;;;;8.00;4.32;;;10.40;39.70;;;;;;5005657;28;20506;-33
2022/03/10 11:35:58;;;;;;;44.90;6.55;;;10.50;40.50;;;;;;5000670;28;20038;-35
2022/03/10 11:38:54;;;;;;;7.18;4.35;;;10.40;41.30;;;;;;5001782;28;20029;-35
2022/03/10 11:41:27;;;;;;;8.13;4.20;;;10.60;40.00;;;;;;5001946;28;20038;-36
2022/03/10 11:44:01;;;;;;;7.18;3.65;;;10.70;37.40;;;;;;4999841;28;20022;-33
2022/03/10 11:46:30;;;;;;;47.95;6.95;;;10.50;37.30;;;;;;4998835;28;20486;-34
2022/03/10 11:49:11;;;;;;;9.15;4.10;;;10.50;37.10;;;;;;5002479;28;20132;-34
2022/03/10 11:51:44;;;;;;;5.72;3.70;;;10.50;37.30;;;;;;5007481;28;20026;-33
2022/03/10 11:54:11;;;;;;;6.75;3.95;;;10.50;37.80;;;;;;5002458;28;20116;-33
2022/03/10 11:56:43;;;;;;;6.45;3.83;;;10.60;36.90;;;;;;5005391;28;20033;-37
2022/03/10 11:59:19;;;;;;;7.65;4.15;;;10.70;36.60;;;;;;5003587;28;20032;-33
2022/03/10 12:01:45;;;;;;;5.65;4.00;;;10.80;36.80;;;;;;5004089;28;20038;-35
2022/03/10 12:04:14;;;;;;;8.00;4.28;;;10.70;36.60;;;;;;5006234;28;20021;-34
2022/03/10 12:06:54;;;;;;;10.35;5.93;;;10.60;35.40;;;;;;5006267;28;20048;-34
2022/03/10 12:09:30;;;;;;;9.25;3.92;;;10.80;37.70;;;;;;5000991;28;20032;-34
2022/03/10 12:12:18;;;;;;;6.10;4.13;;;10.70;37.20;;;;;;5005906;28;20040;-34
2022/03/10 12:14:45;;;;;;;6.40;4.25;;;10.80;37.50;;;;;;5004154;28;20105;-33
2022/03/10 12:17:46;;;;;;;7.43;4.40;;;10.90;36.70;;;;;;5001837;28;20038;-33
2022/03/10 12:20:20;;;;;;;15.98;4.00;;;10.80;36.40;;;;;;5003910;28;20097;-35
2022/03/10 12:23:04;;;;;;;7.13;3.70;;;10.70;34.30;;;;;;5002303;28;20113;-35
2022/03/10 12:25:43;;;;;;;7.10;4.30;;;10.80;34.40;;;;;;5007226;28;20026;-34
2022/03/10 12:28:27;;;;;;;8.27;3.85;;;10.90;36.40;;;;;;5004868;28;20034;-34
2022/03/10 12:31:01;;;;;;;13.80;4.03;;;10.90;34.90;;;;;;5002514;28;20041;-34
2022/03/10 12:33:27;;;;;;;6.28;3.30;;;11.00;34.50;;;;;;5002053;28;20113;-34
2022/03/10 12:35:57;;;;;;;7.75;3.90;;;11.10;34.60;;;;;;5005464;28;20053;-34
2022/03/10 12:38:44;;;;;;;5.20;3.45;;;10.90;32.60;;;;;;5008038;28;20054;-35
2022/03/10 12:41:10;;;;;;;7.53;3.88;;;11.00;31.00;;;;;;5006720;28;20026;-34
2022/03/10 12:43:36;;;;;;;7.70;3.90;;;11.20;34.10;;;;;;5006769;28;20022;-33
2022/03/10 12:46:03;;;;;;;6.03;4.28;;;11.30;32.80;;;;;;5009305;28;20179;-34
2022/03/10 12:48:58;;;;;;;8.70;3.63;;;11.20;32.30;;;;;;5009718;28;20026;-34
2022/03/10 12:51:29;;;;;;;6.13;3.35;;;11.00;32.40;;;;;;5006688;28;20106;-34
2022/03/10 12:53:56;;;;;;;6.15;3.30;;;11.40;33.50;;;;;;5007771;28;20033;-33